Terminal Aerodrome Forecast
Issued by NWS North Platte, NE

Home | Current Version | Previous Version | Graphics & Text | Print | Product List | Glossary On
Versions: 1 2 3 4 5 6 7 8 9 10 11 12 13 14 15 16 17 18 19 20 21
000
FTUS43 KLBF 180100 AAA
TAFVTN
TAF AMD
KVTN 180140Z 1802/1824 05007KT 6SM -RA SCT035 OVC050
     FM180300 05006KT 4SM -RA SCT011 OVC050
      TEMPO 1804/1808 2SM SHRA BKN009
     FM180800 05008KT 2SM RA OVC008
     FM181600 07010KT 4SM BR OVC011=

USA.gov is the U.S. government's official web portal to all federal, state and local government web resources and services.